Погода Рубидона неделю

Калифорния, США

01 - 07 сентября
  • 01сентября
    Сегодня
    +16°
    +32°
    Ясно и безоблачно
    ВремяПогодаТемператураВлажностьДавлениеВетер, м/сВероятность осадков
    02:00Ясно и безоблачно+20°C68 %740 мм1.1 м/с2 %
    05:00Ясно и безоблачно+18°C76 %740 мм0.3 м/с2 %
    08:00Ясно и безоблачно+19°C72 %741 мм0.7 м/с2 %
    11:00Ясно и безоблачно+25°C41 %741 мм0.9 м/с2 %
    14:00Ясно и безоблачно+31°C27 %740 мм5.2 м/с2 %
    17:00Ясно и безоблачно+30°C27 %739 мм7.4 м/с2 %
    20:00Ясно и безоблачно+24°C46 %739 мм3.7 м/с2 %
    23:00Ясно и безоблачно+20°C57 %741 мм2.0 м/с2 %
  • 02сентября
    Среда
    +16°
    +31°
    Ясно и безоблачно
    ВремяПогодаТемператураВлажностьДавлениеВетер, м/сВероятность осадков
    02:00Ясно и безоблачно+18°C67 %741 мм0.5 м/с2 %
    05:00Ясно и безоблачно+17°C69 %741 мм0.3 м/с2 %
    08:00Ясно и безоблачно+18°C63 %741 мм0.5 м/с2 %
    11:00Ясно и безоблачно+25°C37 %741 мм0.7 м/с2 %
    14:00Ясно и безоблачно+31°C27 %740 мм4.2 м/с2 %
    17:00Ясно и безоблачно+29°C27 %739 мм7.0 м/с2 %
    20:00Ясно и безоблачно+23°C45 %739 мм3.9 м/с2 %
    23:00Ясно и безоблачно+20°C58 %740 мм0.9 м/с2 %
  • 03сентября
    Четверг
    +16°
    +31°
    Ясно и безоблачно
    ВремяПогодаТемператураВлажностьДавлениеВетер, м/сВероятность осадков
    02:00Ясно и безоблачно+18°C64 %740 мм0.3 м/с2 %
    05:00Ясно и безоблачно+17°C67 %739 мм0.1 м/с2 %
    08:00Ясно и безоблачно+19°C60 %740 мм0.3 м/с2 %
    11:00Ясно и безоблачно+25°C37 %740 мм0.4 м/с2 %
    14:00Ясно и безоблачно+31°C28 %738 мм3.8 м/с2 %
    17:00Ясно и безоблачно+28°C36 %737 мм7.0 м/с2 %
    20:00Ясно и безоблачно+22°C63 %738 мм3.5 м/с2 %
    23:00Ясно и безоблачно+20°C71 %739 мм1.2 м/с2 %
  • 04сентября
    Пятница
    +17°
    +31°
    Ясно и безоблачно
    ВремяПогодаТемператураВлажностьДавлениеВетер, м/сВероятность осадков
    02:00Ясно и безоблачно+18°C78 %739 мм0.1 м/с2 %
    05:00Ясно и безоблачно+17°C81 %739 мм0.3 м/с2 %
    08:00Ясно и безоблачно+18°C74 %739 мм0.6 м/с2 %
    11:00Ясно и безоблачно+25°C41 %740 мм0.5 м/с2 %
    14:00Ясно и безоблачно+31°C28 %738 мм3.5 м/с2 %
    17:00Ясно и безоблачно+29°C35 %738 мм6.6 м/с2 %
    20:00Ясно и безоблачно+23°C58 %738 мм3.4 м/с2 %
    23:00Ясно и безоблачно+21°C63 %739 мм1.0 м/с2 %
  • 05сентября
    Суббота
    +21°
    +33°
    Ясно и безоблачно
    ВремяПогодаТемператураВлажностьДавлениеВетер, м/сВероятность осадков
    02:00Ясно и безоблачно+19°C65 %739 мм0.3 м/с4 %
    05:00Ясно и безоблачно+18°C65 %739 мм0.4 м/с7 %
    08:00Ясно и безоблачно+21°C51 %740 мм1.1 м/с15 %
    11:00Ясно и безоблачно+28°C23 %740 мм0.5 м/с17 %
    14:00Ясно и безоблачно+33°C17 %739 мм3.9 м/с23 %
    17:00Ясно и безоблачно+31°C25 %738 мм6.1 м/с23 %
    20:00Ясно и безоблачно+26°C42 %738 мм3.7 м/с21 %
    23:00Облачно с прояснениями+24°C47 %740 мм0.7 м/с23 %
  • 06сентября
    Воскресенье
    +21°
    +32°
    Ясно и безоблачно
    ВремяПогодаТемператураВлажностьДавлениеВетер, м/сВероятность осадков
    05:00Небольшая облачность+21°C67 %739 мм0.8 м/с25 %
    11:00Ясно и безоблачно+27°C50 %739 мм0.6 м/с21 %
    17:00Ясно и безоблачно+32°C55 %738 мм5.6 м/с32 %
    23:00Ясно и безоблачно+26°C50 %740 мм1.3 м/с26 %
  • 07сентября
    Понедельник
    +19°
    +34°
    Ясно и безоблачно
    ВремяПогодаТемператураВлажностьДавлениеВетер, м/сВероятность осадков
    05:00Ясно и безоблачно+22°C61 %739 мм1.2 м/с21 %
    11:00Ясно и безоблачно+29°C29 %740 мм2.3 м/с20 %
    17:00Ясно и безоблачно+31°C22 %738 мм4.0 м/с28 %
    23:00Ясно и безоблачно+23°C53 %739 мм1.2 м/с22 %
Мы используем cookies
Соглашаюсь